Time;durP1;ratioP1;P1;durP2;ratioP2;P2;SDS_P1;SDS_P2;PMS_P1;PMS_P2;Temp;Humidity;BMP_temperature;BMP_pressure;BME280_temperature;BME280_humidity;BME280_pressure;Samples;Min_cycle;Max_cycle;Signal;HPM_P1;HPM_P2
2021/07/04 00:02:04;;;;;;;5.15;3.28;;;;;;;20.99;64.72;101135.25;5031205;28;20485;-58
2021/07/04 00:04:29;;;;;;;4.82;3.50;;;;;;;20.99;64.64;101135.25;5031547;28;20037;-58
2021/07/04 00:06:54;;;;;;;5.20;3.63;;;;;;;20.98;64.58;101136.25;5031745;28;20480;-58
2021/07/04 00:09:20;;;;;;;5.20;3.55;;;;;;;20.96;64.55;101140.81;5030547;28;20025;-58
2021/07/04 00:11:45;;;;;;;5.80;3.75;;;;;;;20.97;64.60;101144.34;5031964;28;20025;-57
2021/07/04 00:14:11;;;;;;;4.93;3.22;;;;;;;20.97;64.70;101137.22;5031867;28;20469;-58
2021/07/04 00:16:36;;;;;;;5.15;3.40;;;;;;;20.96;64.43;101134.69;5030631;28;20033;-58
2021/07/04 00:19:02;;;;;;;5.20;3.30;;;;;;;20.95;64.41;101131.22;5031747;28;20026;-58
2021/07/04 00:21:27;;;;;;;4.65;3.30;;;;;;;20.93;64.44;101127.84;5031382;28;20025;-58
2021/07/04 00:23:53;;;;;;;4.90;3.60;;;;;;;20.93;64.59;101130.50;5030804;28;20021;-58
2021/07/04 00:26:18;;;;;;;4.93;3.35;;;;;;;20.95;64.45;101128.56;5031580;28;20444;-58
2021/07/04 00:28:43;;;;;;;5.00;3.33;;;;;;;20.94;64.51;101118.94;5031696;28;20381;-57
2021/07/04 00:31:11;;;;;;;4.97;3.25;;;;;;;20.93;64.60;101117.25;5030785;28;20059;-57
2021/07/04 00:33:37;;;;;;;5.68;3.33;;;;;;;20.94;64.55;101118.94;5031143;28;20041;-58
2021/07/04 00:36:04;;;;;;;6.35;3.42;;;;;;;20.93;64.64;101104.00;5031540;28;20026;-58
2021/07/04 00:38:29;;;;;;;4.90;3.40;;;;;;;20.92;64.51;101097.06;5030374;28;20485;-58
2021/07/04 00:40:54;;;;;;;4.97;3.30;;;;;;;20.93;64.52;101085.47;5031780;28;20128;-58
2021/07/04 00:43:20;;;;;;;4.68;2.90;;;;;;;20.92;64.56;101091.75;5031356;28;20021;-57
2021/07/04 00:45:45;;;;;;;4.68;3.22;;;;;;;20.92;64.37;101089.09;5031066;28;20035;-58
2021/07/04 00:48:13;;;;;;;4.50;3.22;;;;;;;20.90;64.76;101091.03;5035183;28;20018;-57
2021/07/04 00:50:39;;;;;;;5.20;3.60;;;;;;;20.91;64.60;101089.25;5034665;28;20473;-57
2021/07/04 00:53:04;;;;;;;6.20;3.20;;;;;;;20.92;64.47;101088.25;5034132;28;20033;-56
2021/07/04 00:55:30;;;;;;;4.60;3.00;;;;;;;20.89;64.50;101086.72;5034457;28;20026;-58
2021/07/04 00:57:55;;;;;;;5.32;3.33;;;;;;;20.89;64.48;101088.56;5034127;28;20076;-57
2021/07/04 01:00:26;;;;;;;5.20;3.17;;;;;;;20.91;64.59;101084.78;5034616;28;20075;-58
2021/07/04 01:02:52;;;;;;;5.47;3.53;;;;;;;20.90;64.62;101083.09;5034876;28;20056;-57
2021/07/04 01:05:23;;;;;;;5.40;3.25;;;;;;;20.91;64.41;101078.66;5033723;28;20069;-57
2021/07/04 01:07:49;;;;;;;4.90;3.30;;;;;;;20.90;64.40;101080.44;5034924;28;20025;-57
2021/07/04 01:10:17;;;;;;;4.85;3.35;;;;;;;20.88;64.37;101077.09;5034602;28;20026;-57
2021/07/04 01:12:44;;;;;;;4.45;2.90;;;;;;;20.90;64.53;101072.50;5033985;28;20025;-58
2021/07/04 01:15:10;;;;;;;5.95;3.70;;;;;;;20.90;64.20;101076.97;5034633;28;20461;-58
2021/07/04 01:17:37;;;;;;;5.70;3.85;;;;;;;20.89;64.53;101075.31;5034171;28;20041;-58
2021/07/04 01:20:09;;;;;;;5.05;3.40;;;;;;;20.89;64.46;101070.00;5033642;28;20112;-57
2021/07/04 01:22:37;;;;;;;4.80;3.70;;;;;;;20.89;64.44;101072.66;5034190;28;20207;-58
2021/07/04 01:25:04;;;;;;;4.93;3.50;;;;;;;20.88;64.54;101074.44;5034546;28;20152;-58
2021/07/04 01:27:31;;;;;;;4.60;3.13;;;;;;;20.88;64.45;101070.97;5033625;28;20418;-58
2021/07/04 01:29:56;;;;;;;5.25;3.53;;;;;;;20.88;64.29;101081.56;5034453;28;20025;-58
2021/07/04 01:32:22;;;;;;;4.97;3.22;;;;;;;20.88;64.23;101077.09;5033719;28;20050;-57
2021/07/04 01:34:47;;;;;;;5.10;3.20;;;;;;;20.86;64.27;101068.47;5033388;28;20029;-58
2021/07/04 01:37:12;;;;;;;4.70;3.00;;;;;;;20.87;64.31;101082.53;5034342;28;20052;-57
2021/07/04 01:39:37;;;;;;;5.00;3.30;;;;;;;20.87;64.35;101074.59;5033851;28;20057;-58
2021/07/04 01:42:03;;;;;;;5.25;3.30;;;;;;;20.86;64.25;101081.69;5033513;28;20342;-58
2021/07/04 01:44:28;;;;;;;4.70;3.28;;;;;;;20.87;64.22;101077.22;5033660;28;20448;-57
2021/07/04 01:46:53;;;;;;;4.00;2.78;;;;;;;20.86;64.21;101076.41;5034007;28;20028;-58
2021/07/04 01:49:19;;;;;;;4.57;3.10;;;;;;;20.86;64.10;101075.56;5032865;28;20033;-59
2021/07/04 01:51:44;;;;;;;6.13;3.00;;;;;;;20.86;64.26;101075.56;5033908;28;20287;-57
2021/07/04 01:54:09;;;;;;;4.53;2.58;;;;;;;20.84;64.12;101070.41;5033206;28;20271;-58
2021/07/04 01:56:35;;;;;;;4.50;2.97;;;;;;;20.85;64.10;101066.78;5033412;28;20500;-57
2021/07/04 01:59:00;;;;;;;5.00;3.13;;;;;;;20.83;64.23;101064.25;5033800;28;20017;-58
2021/07/04 02:01:25;;;;;;;4.50;3.20;;;;;;;20.84;64.06;101067.78;5032532;28;20152;-58
2021/07/04 02:03:51;;;;;;;4.93;3.10;;;;;;;20.83;64.07;101063.44;5033653;28;20030;-57
2021/07/04 02:06:17;;;;;;;5.28;3.25;;;;;;;20.83;64.11;101066.09;5033287;28;20026;-57
2021/07/04 02:08:42;;;;;;;5.15;3.20;;;;;;;20.84;64.04;101075.72;5032969;28;20037;-59
2021/07/04 02:11:08;;;;;;;5.00;3.40;;;;;;;20.83;64.24;101074.03;5033641;28;20021;-58
2021/07/04 02:13:33;;;;;;;4.70;3.10;;;;;;;20.80;64.19;101064.53;5033155;28;20108;-58
2021/07/04 02:15:58;;;;;;;5.18;3.17;;;;;;;20.82;64.04;101067.91;5032763;28;20060;-58
2021/07/04 02:18:24;;;;;;;4.50;3.10;;;;;;;20.82;64.15;101067.03;5033040;28;20029;-59
2021/07/04 02:20:51;;;;;;;4.30;3.00;;;;;;;20.81;63.91;101068.88;5033312;28;20495;-59
2021/07/04 02:23:26;;;;;;;4.50;3.10;;;;;;;20.81;64.07;101076.81;5032328;28;20068;-57
2021/07/04 02:25:52;;;;;;;4.90;3.50;;;;;;;20.81;63.96;101073.34;5033468;28;20389;-58
2021/07/04 02:28:21;;;;;;;4.43;3.17;;;;;;;20.81;63.88;101078.63;5032755;28;20026;-57
2021/07/04 02:30:49;;;;;;;4.57;3.13;;;;;;;20.81;63.84;101070.69;5032399;28;20465;-58
2021/07/04 02:33:16;;;;;;;5.13;3.08;;;;;;;20.79;63.96;101064.66;5032673;28;20057;-58
2021/07/04 02:35:45;;;;;;;4.35;2.92;;;;;;;20.79;63.98;101067.31;5033114;28;20105;-59
2021/07/04 02:38:13;;;;;;;5.05;3.03;;;;;;;20.79;64.08;101083.22;5032444;28;20029;-59
2021/07/04 02:40:39;;;;;;;6.63;3.17;;;;;;;20.79;63.89;101083.22;5032760;28;20045;-59
2021/07/04 02:43:07;;;;;;;4.30;3.00;;;;;;;20.79;63.83;101075.25;5033093;28;20060;-58
2021/07/04 02:45:33;;;;;;;4.40;2.95;;;;;;;20.78;63.93;101069.13;5031900;28;20116;-59
2021/07/04 02:47:58;;;;;;;5.20;3.10;;;;;;;20.79;63.81;101072.63;5033118;28;20374;-58
2021/07/04 02:50:24;;;;;;;4.80;3.22;;;;;;;20.78;63.92;101063.84;5031747;28;20021;-57
2021/07/04 02:52:54;;;;;;;4.50;3.10;;;;;;;20.78;63.82;101065.66;5032830;28;20036;-57
2021/07/04 02:55:23;;;;;;;5.63;3.53;;;;;;;20.78;63.79;101065.66;5032450;28;20377;-57
2021/07/04 02:57:49;;;;;;;4.22;2.70;;;;;;;20.75;63.68;101061.47;5032169;28;20030;-58
2021/07/04 03:00:17;;;;;;;4.72;3.30;;;;;;;20.77;63.77;101075.41;5032355;28;20113;-58
2021/07/04 03:02:43;;;;;;;4.72;2.90;;;;;;;20.77;63.92;101080.69;5032782;28;20025;-58
2021/07/04 03:05:12;;;;;;;4.70;3.05;;;;;;;20.77;63.62;101087.81;5032142;28;20030;-58
2021/07/04 03:07:38;;;;;;;4.53;3.08;;;;;;;20.78;63.67;101078.91;5032264;28;20075;-58
2021/07/04 03:10:06;;;;;;;5.20;3.03;;;;;;;20.74;63.48;101080.13;5031822;28;20028;-58
2021/07/04 03:12:31;;;;;;;4.50;3.03;;;;;;;20.76;63.55;101079.03;5031472;28;20036;-58
2021/07/04 03:14:56;;;;;;;5.07;3.27;;;;;;;20.76;63.71;101075.53;5032296;28;20029;-60
2021/07/04 03:17:21;;;;;;;4.63;3.08;;;;;;;20.76;63.71;101073.75;5032335;28;20405;-58
2021/07/04 03:19:47;;;;;;;4.50;3.10;;;;;;;20.76;63.82;101072.88;5031733;28;20448;-57
2021/07/04 03:22:12;;;;;;;4.57;3.15;;;;;;;20.75;63.72;101072.06;5032585;28;20270;-57
2021/07/04 03:24:39;;;;;;;4.00;2.67;;;;;;;20.73;63.32;101071.38;5032240;28;20529;-58
2021/07/04 03:27:08;;;;;;;4.60;2.80;;;;;;;20.74;63.47;101065.06;5031475;28;20041;-58
2021/07/04 03:29:34;;;;;;;4.22;2.95;;;;;;;20.75;63.56;101066.75;5031993;28;20033;-58
2021/07/04 03:32:00;;;;;;;4.70;2.95;;;;;;;20.74;63.52;101065.06;5032484;28;20029;-57
2021/07/04 03:34:25;;;;;;;4.97;3.10;;;;;;;20.74;63.61;101062.44;5030869;28;20446;-58
2021/07/04 03:36:54;;;;;;;4.28;3.00;;;;;;;20.74;63.65;101062.44;5032415;28;20113;-58
2021/07/04 03:39:22;;;;;;;5.15;3.10;;;;;;;20.73;63.35;101054.63;5032036;28;20041;-57
2021/07/04 03:41:47;;;;;;;4.13;2.78;;;;;;;20.75;63.58;101058.00;5031143;28;20133;-58
2021/07/04 03:44:13;;;;;;;4.38;3.25;;;;;;;20.74;63.59;101053.66;5032223;28;20065;-58
2021/07/04 03:46:39;;;;;;;4.40;2.90;;;;;;;20.73;63.38;101051.97;5031243;28;20067;-58
2021/07/04 03:49:08;;;;;;;4.30;2.90;;;;;;;20.74;63.61;101056.31;5032165;28;20048;-57
2021/07/04 03:51:33;;;;;;;4.60;2.88;;;;;;;20.68;63.62;101033.00;5031874;28;20025;-57
2021/07/04 03:54:02;;;;;;;4.20;2.80;;;;;;;20.74;63.48;101045.72;5031069;28;20032;-57
2021/07/04 03:56:27;;;;;;;4.32;2.88;;;;;;;20.74;63.72;101048.34;5031663;28;20037;-58
2021/07/04 03:58:52;;;;;;;5.50;2.90;;;;;;;20.73;63.70;101052.81;5032158;28;20048;-58
2021/07/04 04:01:19;;;;;;;5.10;2.95;;;;;;;20.74;63.68;101043.06;5031081;28;20037;-58
2021/07/04 04:03:46;;;;;;;4.75;3.10;;;;;;;20.73;63.56;101047.53;5032108;28;20131;-59
2021/07/04 04:06:11;;;;;;;4.50;3.10;;;;;;;20.73;63.66;101044.88;5032038;28;20029;-58
2021/07/04 04:08:36;;;;;;;4.60;3.30;;;;;;;20.71;63.55;101053.94;5030787;28;20095;-58
2021/07/04 04:11:04;;;;;;;4.43;2.95;;;;;;;20.71;63.57;101057.44;5031791;28;20419;-58
2021/07/04 04:13:32;;;;;;;4.35;3.15;;;;;;;20.72;63.64;101059.09;5031780;28;20104;-59
2021/07/04 04:15:57;;;;;;;4.70;2.95;;;;;;;20.73;63.52;101059.91;5030835;28;20022;-57
2021/07/04 04:18:23;;;;;;;4.47;3.15;;;;;;;20.71;63.61;101059.22;5031508;28;20100;-57
2021/07/04 04:20:48;;;;;;;4.60;3.00;;;;;;;20.70;63.52;101058.41;5033419;28;20028;-57
2021/07/04 04:23:13;;;;;;;4.50;3.08;;;;;;;20.73;63.44;101065.22;5034733;28;20329;-58
2021/07/04 04:25:39;;;;;;;4.88;3.17;;;;;;;20.72;63.63;101060.91;5035061;28;20445;-58
2021/07/04 04:28:05;;;;;;;4.20;2.90;;;;;;;20.72;63.51;101060.91;5035442;28;20021;-58
2021/07/04 04:30:32;;;;;;;5.43;3.08;;;;;;;20.69;63.69;101062.00;5034536;28;20028;-59
2021/07/04 04:32:58;;;;;;;4.55;2.90;;;;;;;20.70;63.52;101071.63;5035125;28;20048;-58
2021/07/04 04:35:23;;;;;;;4.30;2.97;;;;;;;20.72;63.65;101066.19;5034902;28;20033;-57
2021/07/04 04:37:49;;;;;;;4.63;3.13;;;;;;;20.72;63.66;101067.03;5034603;28;20025;-57
2021/07/04 04:40:14;;;;;;;4.82;3.00;;;;;;;20.65;63.42;101048.22;5034935;28;20067;-57
2021/07/04 04:42:39;;;;;;;4.95;3.28;;;;;;;20.73;63.68;101067.84;5035311;28;20028;-57
2021/07/04 04:45:06;;;;;;;5.28;3.47;;;;;;;20.70;63.64;101058.41;5034509;28;20041;-58
2021/07/04 04:47:31;;;;;;;4.90;3.35;;;;;;;20.72;63.68;101058.25;5034724;28;20108;-57
2021/07/04 04:49:56;;;;;;;4.95;3.20;;;;;;;20.71;63.59;101051.28;5034186;28;20597;-58
2021/07/04 04:52:22;;;;;;;6.00;3.40;;;;;;;20.72;63.39;101056.44;5034819;28;20029;-58
2021/07/04 04:54:47;;;;;;;5.00;3.30;;;;;;;20.72;63.66;101063.56;5034693;28;20040;-57
2021/07/04 04:57:13;;;;;;;5.82;3.40;;;;;;;20.72;63.63;101052.97;5034260;28;20279;-58
2021/07/04 04:59:38;;;;;;;5.40;3.70;;;;;;;20.72;63.63;101056.44;5034728;28;20028;-57
2021/07/04 05:02:05;;;;;;;6.13;4.07;;;;;;;20.72;63.66;101053.78;5034923;28;20028;-59
2021/07/04 05:04:31;;;;;;;6.13;4.10;;;;;;;20.71;63.73;101054.78;5033533;28;20025;-58
2021/07/04 05:07:00;;;;;;;6.00;4.30;;;;;;;20.72;63.60;101051.13;5034765;28;20104;-58
2021/07/04 05:09:25;;;;;;;6.53;4.38;;;;;;;20.72;63.78;101052.97;5034322;28;20021;-57
2021/07/04 05:11:51;;;;;;;7.00;4.15;;;;;;;20.73;63.74;101051.97;5033982;28;20059;-62
2021/07/04 05:14:18;;;;;;;6.72;4.38;;;;;;;20.70;63.52;101045.16;5034445;28;20442;-57
2021/07/04 05:16:44;;;;;;;6.68;4.60;;;;;;;20.73;63.88;101054.63;5034748;28;20128;-58
2021/07/04 05:19:11;;;;;;;7.05;4.53;;;;;;;20.73;63.63;101054.63;5033666;28;20029;-57
2021/07/04 05:21:37;;;;;;;6.97;4.57;;;;;;;20.73;63.73;101049.31;5034010;28;20440;-58
2021/07/04 05:24:05;;;;;;;6.22;4.40;;;;;;;20.72;63.73;101050.31;5034562;28;20465;-58
2021/07/04 05:26:30;;;;;;;7.40;4.68;;;;;;;20.72;63.72;101048.50;5033456;28;20108;-57
2021/07/04 05:28:56;;;;;;;7.47;4.97;;;;;;;20.72;63.60;101045.03;5034445;28;20057;-58
2021/07/04 05:31:23;;;;;;;6.45;4.55;;;;;;;20.73;63.66;101050.19;5033472;28;20037;-58
2021/07/04 05:33:48;;;;;;;6.57;4.70;;;;;;;20.72;63.71;101042.38;5033243;28;20041;-58
2021/07/04 05:36:13;;;;;;;6.70;4.78;;;;;;;20.72;63.92;101037.06;5034193;28;20384;-58
2021/07/04 05:38:40;;;;;;;7.25;4.93;;;;;;;20.69;63.69;101032.03;5033727;28;20488;-58
2021/07/04 05:41:06;;;;;;;6.70;4.70;;;;;;;20.73;63.83;101036.94;5033613;28;20044;-58
2021/07/04 05:43:33;;;;;;;7.55;5.10;;;;;;;20.73;63.93;101034.28;5033863;28;20428;-57
2021/07/04 05:45:59;;;;;;;7.95;5.40;;;;;;;20.73;63.75;101033.44;5033941;28;20466;-58
2021/07/04 05:48:26;;;;;;;9.10;5.50;;;;;;;20.73;63.90;101044.03;5033116;28;20041;-58
2021/07/04 05:50:51;;;;;;;7.60;5.40;;;;;;;20.73;64.18;101042.22;5033856;28;20100;-58
2021/07/04 05:53:17;;;;;;;8.40;5.43;;;;;;;20.73;63.97;101038.72;5033015;28;20064;-58
2021/07/04 05:55:43;;;;;;;8.82;5.47;;;;;;;20.73;63.99;101033.44;5033773;28;20071;-58
2021/07/04 05:58:09;;;;;;;7.95;5.50;;;;;;;20.72;63.93;101034.44;5033888;28;20362;-57
2021/07/04 06:00:35;;;;;;;8.55;5.45;;;;;;;20.73;64.05;101030.78;5032979;28;20044;-57
2021/07/04 06:03:01;;;;;;;8.32;5.78;;;;;;;20.72;64.01;101026.47;5033778;28;20052;-57
2021/07/04 06:05:26;;;;;;;8.77;5.82;;;;;;;20.72;63.94;101040.53;5033310;28;20026;-57
2021/07/04 06:07:51;;;;;;;8.63;5.68;;;;;;;20.71;64.00;101028.31;5032937;28;20033;-57
2021/07/04 06:10:17;;;;;;;9.10;5.90;;;;;;;20.73;64.06;101034.28;5033312;28;20052;-57
2021/07/04 06:12:42;;;;;;;8.77;6.03;;;;;;;20.73;63.98;101030.78;5033844;28;20049;-57
2021/07/04 06:15:08;;;;;;;10.48;6.80;;;;;;;20.73;64.10;101031.63;5032697;28;20028;-57
2021/07/04 06:17:34;;;;;;;10.65;6.60;;;;;;;20.72;63.91;101029.97;5033171;28;20891;-58
2021/07/04 06:19:59;;;;;;;10.32;6.88;;;;;;;20.72;63.91;101024.66;5033336;28;20029;-58
2021/07/04 06:22:24;;;;;;;9.77;6.55;;;;;;;20.72;64.20;101022.00;5032245;28;20233;-58
2021/07/04 06:24:50;;;;;;;10.23;7.20;;;;;;;20.72;64.14;101018.53;5033503;28;20208;-57
2021/07/04 06:27:15;;;;;;;10.10;7.00;;;;;;;20.72;64.05;101018.53;5033065;28;20033;-57
2021/07/04 06:29:40;;;;;;;10.95;7.22;;;;;;;20.72;64.08;101014.06;5032610;28;20040;-59
2021/07/04 06:32:06;;;;;;;10.13;7.05;;;;;;;20.72;64.05;101015.88;5033321;28;20018;-57
2021/07/04 06:34:31;;;;;;;10.32;6.95;;;;;;;20.73;63.98;101012.25;5032718;28;20032;-59
2021/07/04 06:36:57;;;;;;;11.05;7.07;;;;;;;20.72;63.84;101005.28;5032426;28;20037;-58
2021/07/04 06:39:22;;;;;;;10.20;6.60;;;;;;;20.72;64.07;101013.25;5032988;28;20025;-59
2021/07/04 06:41:48;;;;;;;9.23;6.32;;;;;;;20.69;63.87;101001.09;5033152;28;20083;-58
2021/07/04 06:44:20;;;;;;;8.38;6.20;;;;;;;20.73;63.80;101004.31;5031205;28;20028;-58
2021/07/04 06:46:45;;;;;;;9.20;6.60;;;;;;;20.72;63.88;101006.13;5032760;28;20045;-58
2021/07/04 06:49:11;;;;;;;9.05;6.78;;;;;;;20.75;64.29;101010.31;5032931;28;20544;-60
2021/07/04 06:51:36;;;;;;;9.37;7.07;;;;;;;20.77;64.58;101009.19;5031831;28;20024;-58
2021/07/04 06:54:02;;;;;;;11.13;7.25;;;;;;;20.78;64.23;101008.22;5032648;28;20489;-59
2021/07/04 06:56:27;;;;;;;10.23;7.07;;;;;;;20.81;64.68;101007.13;5032236;28;20124;-58
2021/07/04 06:58:52;;;;;;;10.40;7.63;;;;;;;20.82;64.69;101000.81;5031762;28;20113;-58
2021/07/04 07:01:18;;;;;;;12.65;8.10;;;;;;;20.84;64.74;101001.53;5032430;28;20275;-57
2021/07/04 07:03:43;;;;;;;12.35;8.05;;;;;;;20.82;64.74;101001.69;5031736;28;20021;-58
2021/07/04 07:06:18;;;;;;;11.63;8.63;;;;;;;20.83;64.63;101007.81;5032804;28;20028;-57
2021/07/04 07:08:43;;;;;;;15.65;10.38;;;;;;;20.83;64.86;101006.00;5032542;28;20458;-58
2021/07/04 07:11:08;;;;;;;16.97;11.50;;;;;;;20.84;65.10;101002.38;5032139;28;20135;-58
2021/07/04 07:13:34;;;;;;;16.38;11.10;;;;;;;20.84;65.04;101002.38;5033357;28;20305;-58
2021/07/04 07:15:59;;;;;;;17.42;12.02;;;;;;;20.88;65.34;101000.28;5032792;28;20109;-60
2021/07/04 07:18:24;;;;;;;20.15;12.23;;;;;;;20.91;65.44;101004.47;5032325;28;20033;-58
2021/07/04 07:20:50;;;;;;;18.13;12.38;;;;;;;20.93;65.50;101010.47;5033063;28;20082;-58
2021/07/04 07:23:15;;;;;;;20.30;13.13;;;;;;;20.95;65.69;101008.50;5033359;28;20064;-58
2021/07/04 07:25:43;;;;;;;20.65;12.63;;;;;;;20.95;65.34;101003.19;5032480;28;20033;-59
2021/07/04 07:28:09;;;;;;;18.65;11.10;;;;;;;20.95;65.53;101001.41;5032422;28;20025;-58
2021/07/04 07:30:35;;;;;;;18.58;12.63;;;;;;;20.99;65.51;101013.38;5032140;28;20056;-57
2021/07/04 07:33:00;;;;;;;18.38;12.02;;;;;;;20.99;65.45;101015.19;5031603;28;20443;-58
2021/07/04 07:35:31;;;;;;;18.13;12.23;;;;;;;21.00;65.63;101012.41;5032637;28;20029;-58
2021/07/04 07:37:59;;;;;;;18.13;11.60;;;;;;;21.03;65.49;101019.25;5033212;28;20274;-61
2021/07/04 07:40:25;;;;;;;16.80;11.88;;;;;;;21.03;65.77;101016.63;5031355;28;20017;-59
2021/07/04 07:42:50;;;;;;;16.73;11.60;;;;;;;21.05;65.52;101013.81;5032240;28;20051;-61
2021/07/04 07:45:16;;;;;;;17.50;11.82;;;;;;;21.04;65.61;101006.84;5031946;28;20032;-60
2021/07/04 07:47:41;;;;;;;16.48;11.25;;;;;;;21.09;65.47;101005.44;5031666;28;20480;-60
2021/07/04 07:50:07;;;;;;;16.80;11.32;;;;;;;21.11;65.55;101008.78;5032520;28;20025;-60
2021/07/04 07:52:32;;;;;;;16.73;11.48;;;;;;;21.12;65.51;101015.75;5032157;28;20036;-60
2021/07/04 07:54:57;;;;;;;15.75;11.32;;;;;;;21.14;65.57;101012.97;5033303;28;20026;-58
2021/07/04 07:57:26;;;;;;;17.13;11.35;;;;;;;21.17;65.35;101012.69;5035885;28;20112;-59
2021/07/04 07:59:51;;;;;;;16.95;12.02;;;;;;;21.22;65.33;101006.97;5035566;28;20477;-59
2021/07/04 08:02:16;;;;;;;16.35;11.75;;;;;;;21.24;65.29;101007.66;5036307;28;20048;-59
2021/07/04 08:04:47;;;;;;;15.88;10.68;;;;;;;21.24;65.15;101000.56;5036458;28;20104;-58
2021/07/04 08:07:12;;;;;;;18.50;11.60;;;;;;;21.27;65.28;100992.31;5035856;28;20053;-57
2021/07/04 08:09:41;;;;;;;17.13;11.70;;;;;;;21.26;65.29;100990.63;5035972;28;20466;-59
2021/07/04 08:12:12;;;;;;;15.77;11.25;;;;;;;21.28;65.13;100987.84;5036010;28;20273;-60
2021/07/04 08:14:37;;;;;;;17.15;11.98;;;;;;;21.25;65.25;100988.94;5034849;28;20071;-58
2021/07/04 08:17:03;;;;;;;17.73;12.00;;;;;;;21.27;65.37;100992.31;5035636;28;20021;-58
2021/07/04 08:19:35;;;;;;;18.25;12.23;;;;;;;21.27;65.58;100976.41;5035646;28;20284;-61
2021/07/04 08:22:03;;;;;;;20.75;13.63;;;;;;;21.26;65.21;100965.94;5035163;28;20033;-59
2021/07/04 08:24:29;;;;;;;19.77;13.30;;;;;;;21.27;65.33;100965.81;5036185;28;20105;-59
2021/07/04 08:26:54;;;;;;;20.25;14.07;;;;;;;21.26;65.27;100963.31;5036117;28;20077;-60
2021/07/04 08:29:21;;;;;;;21.67;14.90;;;;;;;21.26;65.42;100969.44;5034976;28;20033;-59
2021/07/04 08:31:52;;;;;;;21.55;14.07;;;;;;;21.26;65.49;100963.31;5035581;28;20096;-60
2021/07/04 08:34:17;;;;;;;21.42;14.90;;;;;;;21.24;65.51;100968.75;5034691;28;20400;-61
2021/07/04 08:36:43;;;;;;;22.70;16.02;;;;;;;21.24;65.48;100960.78;5034315;28;20458;-59
2021/07/04 08:39:14;;;;;;;23.23;16.52;;;;;;;21.20;65.59;100967.34;5035130;28;20026;-59
2021/07/04 08:41:40;;;;;;;22.80;14.98;;;;;;;21.25;65.43;100966.91;5035253;28;20102;-59
2021/07/04 08:44:09;;;;;;;25.23;16.58;;;;;;;21.22;65.40;100961.91;5034392;28;20208;-60
2021/07/04 08:46:42;;;;;;;22.55;15.30;;;;;;;21.26;65.39;100955.34;5035518;28;20103;-59
2021/07/04 08:49:08;;;;;;;23.08;15.70;;;;;;;21.27;65.39;100946.41;5034293;28;20029;-58
2021/07/04 08:51:34;;;;;;;24.25;15.38;;;;;;;21.25;65.50;100943.06;5034943;28;20025;-59
2021/07/04 08:53:59;;;;;;;23.73;15.65;;;;;;;21.26;65.45;100940.28;5035137;28;20495;-59
2021/07/04 08:56:25;;;;;;;23.45;14.95;;;;;;;21.26;65.71;100950.88;5034056;28;20052;-59
2021/07/04 08:58:50;;;;;;;21.80;15.60;;;;;;;21.26;65.71;100952.69;5035482;28;20413;-59
2021/07/04 09:01:24;;;;;;;22.98;15.40;;;;;;;21.27;65.87;100955.22;5034848;28;20026;-60
2021/07/04 09:03:50;;;;;;;;;;;;;;;21.26;65.83;100955.34;5034654;28;20026;-59
2021/07/04 09:06:45;;;;;;;22.30;14.32;;;;;;;21.26;65.76;100965.94;5034115;28;19912;-59
2021/07/04 09:09:17;;;;;;;;;;;;;;;21.24;65.75;100963.44;5035709;28;20026;-59
2021/07/04 09:11:54;;;;;;;20.73;13.82;;;;;;;21.24;65.89;100959.94;5034475;28;19913;-59
2021/07/04 09:14:31;;;;;;;20.90;14.32;;;;;;;21.23;66.05;100956.47;5034630;28;20381;-59
2021/07/04 09:16:59;;;;;;;22.02;14.57;;;;;;;21.17;66.44;100944.63;5034662;28;20481;-57
2021/07/04 09:19:25;;;;;;;23.75;14.63;;;;;;;21.20;66.55;100951.44;5033647;28;20055;-58
2021/07/04 09:21:57;;;;;;;20.42;12.80;;;;;;;21.20;66.48;100947.00;5034927;28;20055;-60
2021/07/04 09:24:33;;;;;;;20.63;13.45;;;;;;;21.22;66.73;100949.50;5033809;28;20025;-59
2021/07/04 09:26:59;;;;;;;19.70;12.93;;;;;;;21.27;66.79;100941.09;5034803;28;20029;-59
2021/07/04 09:29:43;;;;;;;20.27;12.82;;;;;;;21.32;66.68;100933.56;5034271;28;20041;-59
2021/07/04 09:32:14;;;;;;;19.85;12.43;;;;;;;21.35;66.22;100936.78;5033422;28;20033;-60
2021/07/04 09:34:54;;;;;;;19.27;13.40;;;;;;;21.38;66.12;100922.41;5035951;28;20033;-59
2021/07/04 09:37:41;;;;;;;19.40;12.68;;;;;;;21.43;65.89;100929.91;5034472;28;20079;-58
2021/07/04 09:40:12;;;;;;;20.45;12.73;;;;;;;21.43;65.90;100921.94;5033557;28;20039;-60
2021/07/04 09:42:58;;;;;;;20.65;13.85;;;;;;;21.43;65.80;100921.94;5034471;28;20021;-59
2021/07/04 09:45:26;;;;;;;21.10;12.85;;;;;;;21.44;66.00;100920.97;5033395;28;20147;-59
2021/07/04 09:47:54;;;;;;;19.10;12.95;;;;;;;21.44;66.22;100918.31;5034348;28;20030;-59
2021/07/04 09:50:20;;;;;;;17.75;13.13;;;;;;;21.45;65.99;100920.84;5033958;28;20017;-59
2021/07/04 09:53:00;;;;;;;19.70;13.50;;;;;;;21.47;65.84;100920.69;5033471;28;20044;-59
2021/07/04 09:55:27;;;;;;;19.52;12.55;;;;;;;21.46;65.83;100921.66;5033418;28;20090;-58
2021/07/04 09:57:58;;;;;;;20.05;13.77;;;;;;;21.46;66.01;100913.69;5034137;28;20021;-59
2021/07/04 10:00:27;;;;;;;20.33;13.30;;;;;;;21.47;65.84;100912.72;5033880;28;20504;-59
2021/07/04 10:03:11;;;;;;;19.75;13.35;;;;;;;21.48;66.17;100912.63;5034424;28;20381;-60
2021/07/04 10:05:41;;;;;;;19.52;13.02;;;;;;;21.47;66.07;100910.91;5033801;28;20033;-59
2021/07/04 10:08:26;;;;;;;19.58;13.30;;;;;;;21.48;66.18;100902.00;5033278;28;20041;-60
2021/07/04 10:11:10;;;;;;;19.77;13.80;;;;;;;21.47;66.14;100897.66;5033905;28;20037;-59
2021/07/04 10:13:37;;;;;;;18.63;12.38;;;;;;;21.47;66.34;100899.47;5033011;28;20374;-59
2021/07/04 10:16:22;;;;;;;20.23;13.57;;;;;;;21.47;66.29;100900.31;5033555;28;20541;-59
2021/07/04 10:18:48;;;;;;;18.83;13.73;;;;;;;21.48;66.61;100898.50;5033668;28;20032;-59
2021/07/04 10:21:14;;;;;;;20.95;14.23;;;;;;;21.47;66.74;100907.44;5032921;28;20112;-59
2021/07/04 10:23:47;;;;;;;18.60;13.82;;;;;;;21.47;66.83;100889.69;5033467;28;20492;-59
2021/07/04 10:26:16;;;;;;;19.40;13.30;;;;;;;21.49;66.83;100890.44;5033755;28;20025;-59
2021/07/04 10:28:43;;;;;;;22.17;14.27;;;;;;;21.48;67.00;100888.75;5032650;28;20108;-60
2021/07/04 10:31:19;;;;;;;23.08;15.18;;;;;;;21.47;66.63;100883.56;5033399;28;20438;-57
2021/07/04 10:33:45;;;;;;;22.50;14.95;;;;;;;21.46;66.63;100880.09;5033230;28;20049;-57
2021/07/04 10:36:16;;;;;;;22.95;15.43;;;;;;;21.46;66.55;100880.09;5032392;28;20042;-59
2021/07/04 10:39:09;;;;;;;20.13;14.02;;;;;;;21.46;66.60;100858.03;5033439;28;20500;-58
2021/07/04 10:41:35;;;;;;;20.45;14.38;;;;;;;21.47;66.38;100865.00;5032976;28;20076;-59
2021/07/04 10:44:06;;;;;;;19.08;13.52;;;;;;;21.48;66.27;100850.78;5033487;28;20056;-57
2021/07/04 10:46:44;;;;;;;23.08;14.70;;;;;;;21.48;66.07;100845.47;5032852;28;20469;-58
2021/07/04 10:49:19;;;;;;;24.05;15.75;;;;;;;21.50;66.16;100843.53;5032383;28;20053;-57
2021/07/04 10:51:57;;;;;;;21.00;14.98;;;;;;;21.51;66.34;100843.41;5033105;28;20076;-58
2021/07/04 10:54:38;;;;;;;23.60;15.98;;;;;;;21.53;66.61;100836.13;5032383;28;20029;-59
2021/07/04 10:57:08;;;;;;;22.40;14.93;;;;;;;21.54;66.53;100840.44;5032218;28;20031;-59
2021/07/04 11:00:06;;;;;;;21.50;14.30;;;;;;;21.56;66.34;100837.66;5032620;28;20029;-58
2021/07/04 11:02:51;;;;;;;24.17;14.50;;;;;;;21.57;66.53;100828.72;5018198;28;20042;-60
2021/07/04 11:05:31;;;;;;;21.40;14.15;;;;;;;21.59;66.33;100836.50;5032320;28;20136;-59
2021/07/04 11:07:57;;;;;;;20.95;14.43;;;;;;;21.60;66.54;100830.22;5032918;28;20033;-59
2021/07/04 11:10:26;;;;;;;23.15;14.70;;;;;;;21.61;66.40;100830.09;5031734;28;20350;-60
2021/07/04 11:13:15;;;;;;;21.20;13.93;;;;;;;21.63;66.14;100824.63;5032676;28;20057;-58
2021/07/04 11:15:42;;;;;;;21.05;14.25;;;;;;;21.61;66.26;100821.31;5032850;28;20075;-58
2021/07/04 11:18:10;;;;;;;19.15;13.30;;;;;;;21.64;66.23;100821.81;5032136;28;20100;-59
2021/07/04 11:20:38;;;;;;;20.38;13.63;;;;;;;21.64;66.17;100819.19;5033263;28;20104;-62
2021/07/04 11:23:06;;;;;;;20.83;14.25;;;;;;;21.61;66.54;100816.00;5032517;28;20032;-59